sensor_id;sensor_type;location;lat;lon;timestamp;pressure;altitude;pressure_sealevel;temperature;humidity
34370;BME280;20635;55.812;37.560;2023-07-20T16:41:02;98306.31;;;26.25;49.45
34370;BME280;20635;55.812;37.560;2023-07-20T16:43:28;98311.94;;;26.25;49.38
34370;BME280;20635;55.812;37.560;2023-07-20T16:46:00;98306.69;;;26.23;49.35
34370;BME280;20635;55.812;37.560;2023-07-20T16:48:26;98304.69;;;26.24;49.58
34370;BME280;20635;55.812;37.560;2023-07-20T16:50:52;98297.47;;;26.23;49.44
34370;BME280;20635;55.812;37.560;2023-07-20T16:53:18;98309.88;;;26.22;49.53
34370;BME280;20635;55.812;37.560;2023-07-20T16:55:44;98307.88;;;26.22;49.40
34370;BME280;20635;55.812;37.560;2023-07-20T16:58:10;98306.25;;;26.21;49.21
34370;BME280;20635;55.812;37.560;2023-07-20T17:00:36;98309.06;;;26.21;49.00
34370;BME280;20635;55.812;37.560;2023-07-20T17:03:02;98304.63;;;26.20;49.33
34370;BME280;20635;55.812;37.560;2023-07-20T17:05:28;98317.84;;;26.20;49.38
34370;BME280;20635;55.812;37.560;2023-07-20T17:07:54;98326.28;;;26.20;49.07
34370;BME280;20635;55.812;37.560;2023-07-20T17:10:23;98327.47;;;26.19;49.23
34370;BME280;20635;55.812;37.560;2023-07-20T17:12:49;98324.66;;;26.19;49.19
34370;BME280;20635;55.812;37.560;2023-07-20T17:15:15;98332.66;;;26.17;49.04
34370;BME280;20635;55.812;37.560;2023-07-20T17:17:41;98340.69;;;26.18;49.16
34370;BME280;20635;55.812;37.560;2023-07-20T17:20:07;98336.25;;;26.17;49.09
34370;BME280;20635;55.812;37.560;2023-07-20T17:22:36;98346.69;;;26.17;49.12
34370;BME280;20635;55.812;37.560;2023-07-20T17:25:02;98342.22;;;26.16;49.09
34370;BME280;20635;55.812;37.560;2023-07-20T17:27:28;98351.50;;;26.16;48.92
34370;BME280;20635;55.812;37.560;2023-07-20T17:29:53;98345.88;;;26.16;48.89
34370;BME280;20635;55.812;37.560;2023-07-20T17:32:20;98340.25;;;26.16;49.05
34370;BME280;20635;55.812;37.560;2023-07-20T17:34:45;98353.47;;;26.16;49.09
34370;BME280;20635;55.812;37.560;2023-07-20T17:37:11;98359.06;;;26.16;48.85
34370;BME280;20635;55.812;37.560;2023-07-20T17:39:41;98363.88;;;26.15;48.93
34370;BME280;20635;55.812;37.560;2023-07-20T17:42:07;98352.66;;;26.15;49.04
34370;BME280;20635;55.812;37.560;2023-07-20T17:44:33;98353.03;;;26.14;48.99
34370;BME280;20635;55.812;37.560;2023-07-20T17:46:59;98351.84;;;26.15;48.99
34370;BME280;20635;55.812;37.560;2023-07-20T17:49:24;98345.41;;;26.14;49.20
34370;BME280;20635;55.812;37.560;2023-07-20T17:51:50;98345.78;;;26.13;49.21
34370;BME280;20635;55.812;37.560;2023-07-20T17:54:16;98361.44;;;26.14;49.05
34370;BME280;20635;55.812;37.560;2023-07-20T17:56:42;98355.03;;;26.13;49.04
34370;BME280;20635;55.812;37.560;2023-07-20T17:59:07;98360.66;;;26.13;48.95
34370;BME280;20635;55.812;37.560;2023-07-20T18:01:33;98359.84;;;26.13;49.18
34370;BME280;20635;55.812;37.560;2023-07-20T18:03:59;98359.03;;;26.12;49.03
34370;BME280;20635;55.812;37.560;2023-07-20T18:06:24;98361.81;;;26.12;49.08
34370;BME280;20635;55.812;37.560;2023-07-20T18:08:52;98361.03;;;26.12;49.08
34370;BME280;20635;55.812;37.560;2023-07-20T18:11:18;98363.00;;;26.11;49.11
34370;BME280;20635;55.812;37.560;2023-07-20T18:13:44;98363.00;;;26.11;49.23
34370;BME280;20635;55.812;37.560;2023-07-20T18:16:10;98365.78;;;26.11;49.10
34370;BME280;20635;55.812;37.560;2023-07-20T18:18:36;98360.19;;;26.11;49.30
34370;BME280;20635;55.812;37.560;2023-07-20T18:21:02;98364.97;;;26.11;49.16
34370;BME280;20635;55.812;37.560;2023-07-20T18:23:27;98356.56;;;26.11;49.25
34370;BME280;20635;55.812;37.560;2023-07-20T18:25:53;98358.56;;;26.10;49.30
34370;BME280;20635;55.812;37.560;2023-07-20T18:28:19;98352.94;;;26.10;49.33
34370;BME280;20635;55.812;37.560;2023-07-20T18:30:45;98343.72;;;26.10;49.20
34370;BME280;20635;55.812;37.560;2023-07-20T18:33:11;98346.53;;;26.10;49.25
34370;BME280;20635;55.812;37.560;2023-07-20T18:35:37;98349.34;;;26.10;49.17
34370;BME280;20635;55.812;37.560;2023-07-20T18:38:03;98348.53;;;26.09;49.31
34370;BME280;20635;55.812;37.560;2023-07-20T18:40:29;98344.91;;;26.09;49.06
34370;BME280;20635;55.812;37.560;2023-07-20T18:42:55;98344.09;;;26.08;49.35
34370;BME280;20635;55.812;37.560;2023-07-20T18:45:20;98342.09;;;26.09;49.34
34370;BME280;20635;55.812;37.560;2023-07-20T18:47:46;98348.53;;;26.09;49.29
34370;BME280;20635;55.812;37.560;2023-07-20T18:50:15;98342.09;;;26.09;49.41
34370;BME280;20635;55.812;37.560;2023-07-20T18:52:41;98337.69;;;26.08;49.49
34370;BME280;20635;55.812;37.560;2023-07-20T18:55:08;98339.63;;;26.07;49.30
34370;BME280;20635;55.812;37.560;2023-07-20T18:57:34;98335.22;;;26.06;49.17
34370;BME280;20635;55.812;37.560;2023-07-20T19:00:02;98340.47;;;26.08;49.33
34370;BME280;20635;55.812;37.560;2023-07-20T19:02:29;98331.59;;;26.05;49.29
34370;BME280;20635;55.812;37.560;2023-07-20T19:04:54;98332.41;;;26.06;49.42
34370;BME280;20635;55.812;37.560;2023-07-20T19:07:22;98337.22;;;26.05;49.55
34370;BME280;20635;55.812;37.560;2023-07-20T19:09:48;98334.41;;;26.05;49.34
34370;BME280;20635;55.812;37.560;2023-07-20T19:12:14;98331.59;;;26.05;49.37
34370;BME280;20635;55.812;37.560;2023-07-20T19:14:40;98339.22;;;26.05;49.32
34370;BME280;20635;55.812;37.560;2023-07-20T19:17:06;98346.81;;;26.04;49.38
34370;BME280;20635;55.812;37.560;2023-07-20T19:19:32;98346.81;;;26.04;49.38
34370;BME280;20635;55.812;37.560;2023-07-20T19:21:58;98352.44;;;26.04;49.45
34370;BME280;20635;55.812;37.560;2023-07-20T19:24:24;98349.63;;;26.04;49.47
34370;BME280;20635;55.812;37.560;2023-07-20T19:26:49;98343.22;;;26.04;49.37
34370;BME280;20635;55.812;37.560;2023-07-20T19:29:15;98350.81;;;26.03;49.47
34370;BME280;20635;55.812;37.560;2023-07-20T19:31:41;98341.59;;;26.03;49.49
34370;BME280;20635;55.812;37.560;2023-07-20T19:34:07;98345.22;;;26.03;49.48
34370;BME280;20635;55.812;37.560;2023-07-20T19:36:34;98350.00;;;26.03;49.51
34370;BME280;20635;55.812;37.560;2023-07-20T19:39:00;98345.22;;;26.03;49.56
34370;BME280;20635;55.812;37.560;2023-07-20T19:41:26;98349.16;;;26.02;49.43
34370;BME280;20635;55.812;37.560;2023-07-20T19:43:51;98341.94;;;26.01;49.71
34370;BME280;20635;55.812;37.560;2023-07-20T19:46:17;98344.75;;;26.01;49.55
34370;BME280;20635;55.812;37.560;2023-07-20T19:48:44;98350.00;;;26.03;49.51
34370;BME280;20635;55.812;37.560;2023-07-20T19:51:09;98346.38;;;26.02;49.62
34370;BME280;20635;55.812;37.560;2023-07-20T19:53:36;98341.94;;;26.01;49.53
34370;BME280;20635;55.812;37.560;2023-07-20T19:56:02;98347.56;;;26.01;49.61
34370;BME280;20635;55.812;37.560;2023-07-20T19:58:29;98348.75;;;26.00;49.57
34370;BME280;20635;55.812;37.560;2023-07-20T20:00:55;98355.97;;;26.01;49.74
34370;BME280;20635;55.812;37.560;2023-07-20T20:03:21;98358.78;;;26.01;49.69
34370;BME280;20635;55.812;37.560;2023-07-20T20:05:47;98372.81;;;26.01;49.72
34370;BME280;20635;55.812;37.560;2023-07-20T20:08:13;98364.41;;;26.01;49.70
34370;BME280;20635;55.812;37.560;2023-07-20T20:10:40;98363.59;;;26.01;49.92
34370;BME280;20635;55.812;37.560;2023-07-20T20:13:06;98365.19;;;26.02;50.04
34370;BME280;20635;55.812;37.560;2023-07-20T20:15:32;98374.44;;;26.02;49.97
34370;BME280;20635;55.812;37.560;2023-07-20T20:17:58;98375.28;;;26.03;49.97
34370;BME280;20635;55.812;37.560;2023-07-20T20:20:31;98378.06;;;26.03;50.20
34370;BME280;20635;55.812;37.560;2023-07-20T20:23:00;98368.47;;;26.04;50.13
34370;BME280;20635;55.812;37.560;2023-07-20T20:25:26;98383.31;;;26.04;50.10
34370;BME280;20635;55.812;37.560;2023-07-20T20:27:54;98369.28;;;26.04;50.22
34370;BME280;20635;55.812;37.560;2023-07-20T20:30:19;98381.69;;;26.03;50.23
34370;BME280;20635;55.812;37.560;2023-07-20T20:32:48;98381.69;;;26.03;50.36
34370;BME280;20635;55.812;37.560;2023-07-20T20:35:14;98370.47;;;26.03;50.35
34370;BME280;20635;55.812;37.560;2023-07-20T20:37:40;98380.50;;;26.04;50.31
34370;BME280;20635;55.812;37.560;2023-07-20T20:40:06;98371.28;;;26.04;50.25
34370;BME280;20635;55.812;37.560;2023-07-20T20:42:32;98374.09;;;26.04;50.34
34370;BME280;20635;55.812;37.560;2023-07-20T20:44:58;98385.31;;;26.04;50.17
34370;BME280;20635;55.812;37.560;2023-07-20T20:47:24;98374.91;;;26.04;50.49
34370;BME280;20635;55.812;37.560;2023-07-20T20:49:51;98381.69;;;26.03;50.21
34370;BME280;20635;55.812;37.560;2023-07-20T20:52:19;98386.13;;;26.04;50.19
34370;BME280;20635;55.812;37.560;2023-07-20T20:54:45;98388.94;;;26.04;50.13
34370;BME280;20635;55.812;37.560;2023-07-20T20:57:11;98384.94;;;26.05;50.27
34370;BME280;20635;55.812;37.560;2023-07-20T20:59:37;98389.75;;;26.05;50.23
34370;BME280;20635;55.812;37.560;2023-07-20T21:02:08;98389.75;;;26.05;50.13
34370;BME280;20635;55.812;37.560;2023-07-20T21:04:35;98381.69;;;26.03;50.06
34370;BME280;20635;55.812;37.560;2023-07-20T21:07:01;98388.13;;;26.04;50.26
34370;BME280;20635;55.812;37.560;2023-07-20T21:09:27;98383.31;;;26.04;50.06
34370;BME280;20635;55.812;37.560;2023-07-20T21:11:52;98402.97;;;26.04;50.07
34370;BME280;20635;55.812;37.560;2023-07-20T21:14:19;98393.72;;;26.04;50.13
34370;BME280;20635;55.812;37.560;2023-07-20T21:16:45;98393.72;;;26.04;50.10
34370;BME280;20635;55.812;37.560;2023-07-20T21:19:11;98395.72;;;26.03;50.06
34370;BME280;20635;55.812;37.560;2023-07-20T21:21:37;98394.91;;;26.03;49.91
34370;BME280;20635;55.812;37.560;2023-07-20T21:24:03;98394.09;;;26.02;50.03
34370;BME280;20635;55.812;37.560;2023-07-20T21:26:29;98398.88;;;26.02;49.83
34370;BME280;20635;55.812;37.560;2023-07-20T21:28:55;98405.31;;;26.02;50.04
34370;BME280;20635;55.812;37.560;2023-07-20T21:31:20;98398.06;;;26.01;49.95
34370;BME280;20635;55.812;37.560;2023-07-20T21:33:46;98404.88;;;26.00;49.84
34370;BME280;20635;55.812;37.560;2023-07-20T21:36:12;98399.25;;;26.00;49.96
34370;BME280;20635;55.812;37.560;2023-07-20T21:38:38;98399.25;;;26.00;49.95
34370;BME280;20635;55.812;37.560;2023-07-20T21:41:04;98402.06;;;26.00;49.92
34370;BME280;20635;55.812;37.560;2023-07-20T21:43:30;98394.84;;;25.99;49.83
34370;BME280;20635;55.812;37.560;2023-07-20T21:45:56;98403.25;;;25.99;49.68
34370;BME280;20635;55.812;37.560;2023-07-20T21:48:22;98396.84;;;25.99;49.72
34370;BME280;20635;55.812;37.560;2023-07-20T21:50:48;98401.63;;;25.98;49.69
34370;BME280;20635;55.812;37.560;2023-07-20T21:53:14;98405.25;;;25.99;49.97
34370;BME280;20635;55.812;37.560;2023-07-20T21:55:42;98403.59;;;25.98;49.67
34370;BME280;20635;55.812;37.560;2023-07-20T21:58:08;98408.41;;;25.97;49.70
34370;BME280;20635;55.812;37.560;2023-07-20T22:00:34;98405.97;;;25.96;49.69
34370;BME280;20635;55.812;37.560;2023-07-20T22:03:00;98409.59;;;25.96;49.75
34370;BME280;20635;55.812;37.560;2023-07-20T22:05:26;98416.41;;;25.95;49.60
34370;BME280;20635;55.812;37.560;2023-07-20T22:07:51;98419.19;;;25.95;49.57
34370;BME280;20635;55.812;37.560;2023-07-20T22:10:20;98409.16;;;25.94;49.72
34370;BME280;20635;55.812;37.560;2023-07-20T22:12:46;98412.31;;;25.93;49.48
34370;BME280;20635;55.812;37.560;2023-07-20T22:15:13;98410.31;;;25.93;49.47
34370;BME280;20635;55.812;37.560;2023-07-20T22:17:39;98417.94;;;25.93;49.52
34370;BME280;20635;55.812;37.560;2023-07-20T22:20:05;98407.88;;;25.92;49.47
34370;BME280;20635;55.812;37.560;2023-07-20T22:22:31;98408.69;;;25.92;49.46
34370;BME280;20635;55.812;37.560;2023-07-20T22:24:57;98417.13;;;25.92;49.61
34370;BME280;20635;55.812;37.560;2023-07-20T22:27:22;98419.91;;;25.92;49.36
34370;BME280;20635;55.812;37.560;2023-07-20T22:29:48;98419.13;;;25.92;49.30
34370;BME280;20635;55.812;37.560;2023-07-20T22:32:14;98416.31;;;25.92;49.28
34370;BME280;20635;55.812;37.560;2023-07-20T22:34:40;98407.88;;;25.92;49.40
34370;BME280;20635;55.812;37.560;2023-07-20T22:37:06;98407.88;;;25.92;49.26
34370;BME280;20635;55.812;37.560;2023-07-20T22:39:32;98408.25;;;25.90;49.36
34370;BME280;20635;55.812;37.560;2023-07-20T22:41:59;98412.69;;;25.91;49.41
34370;BME280;20635;55.812;37.560;2023-07-20T22:44:26;98409.88;;;25.91;49.21
34370;BME280;20635;55.812;37.560;2023-07-20T22:46:52;98416.31;;;25.92;49.20
34370;BME280;20635;55.812;37.560;2023-07-20T22:49:17;98418.31;;;25.91;49.15
34370;BME280;20635;55.812;37.560;2023-07-20T22:51:43;98415.50;;;25.91;49.21
34370;BME280;20635;55.812;37.560;2023-07-20T22:54:09;98415.50;;;25.91;49.21
34370;BME280;20635;55.812;37.560;2023-07-20T22:56:35;98412.69;;;25.91;49.18
34370;BME280;20635;55.812;37.560;2023-07-20T22:59:01;98411.06;;;25.90;49.26
34370;BME280;20635;55.812;37.560;2023-07-20T23:01:28;98414.69;;;25.91;49.14
34370;BME280;20635;55.812;37.560;2023-07-20T23:03:54;98413.88;;;25.90;49.21
34370;BME280;20635;55.812;37.560;2023-07-20T23:06:19;98415.06;;;25.89;49.15
34370;BME280;20635;55.812;37.560;2023-07-20T23:08:47;98404.66;;;25.90;49.15
34370;BME280;20635;55.812;37.560;2023-07-20T23:11:13;98412.25;;;25.89;48.94
34370;BME280;20635;55.812;37.560;2023-07-20T23:13:39;98409.44;;;25.89;49.00
34370;BME280;20635;55.812;37.560;2023-07-20T23:16:05;98409.44;;;25.89;49.04
34370;BME280;20635;55.812;37.560;2023-07-20T23:18:32;98399.38;;;25.88;49.11
34370;BME280;20635;55.812;37.560;2023-07-20T23:20:59;98407.47;;;25.90;49.04
34370;BME280;20635;55.812;37.560;2023-07-20T23:23:25;98402.19;;;25.88;49.08
34370;BME280;20635;55.812;37.560;2023-07-20T23:25:55;98402.19;;;25.88;49.07
34370;BME280;20635;55.812;37.560;2023-07-20T23:28:24;98414.22;;;25.89;48.88
34370;BME280;20635;55.812;37.560;2023-07-20T23:30:50;98410.59;;;25.88;48.80
34370;BME280;20635;55.812;37.560;2023-07-20T23:33:19;98410.59;;;25.88;49.02
34370;BME280;20635;55.812;37.560;2023-07-20T23:35:45;98407.00;;;25.88;48.84
34370;BME280;20635;55.812;37.560;2023-07-20T23:38:13;98403.38;;;25.87;48.93
34370;BME280;20635;55.812;37.560;2023-07-20T23:40:38;98402.19;;;25.88;48.94
34370;BME280;20635;55.812;37.560;2023-07-20T23:43:04;98401.38;;;25.88;48.94
34370;BME280;20635;55.812;37.560;2023-07-20T23:45:30;98410.97;;;25.87;48.89
34370;BME280;20635;55.812;37.560;2023-07-20T23:47:57;98403.75;;;25.86;48.96
34370;BME280;20635;55.812;37.560;2023-07-20T23:50:23;98393.34;;;25.86;48.85
34370;BME280;20635;55.812;37.560;2023-07-20T23:52:50;98395.34;;;25.86;48.97
34370;BME280;20635;55.812;37.560;2023-07-20T23:55:16;98400.13;;;25.85;48.88
34370;BME280;20635;55.812;37.560;2023-07-20T23:57:44;98396.53;;;25.85;48.99
